Time;durP1;ratioP1;P1;durP2;ratioP2;P2;SDS_P1;SDS_P2;PMS_P1;PMS_P2;Temp;Humidity;BMP_temperature;BMP_pressure;BME280_temperature;BME280_humidity;BME280_pressure;Samples;Min_cycle;Max_cycle;Signal;HPM_P1;HPM_P2
2022/12/03 00:02:19;;;;;;;21.57;12.20;;;1.10;99.90;;;;;;5054839;28;20447;-53
2022/12/03 00:04:45;;;;;;;18.57;11.17;;;1.10;99.90;;;;;;5055171;28;20451;-54
2022/12/03 00:07:12;;;;;;;19.30;10.20;;;1.20;99.90;;;;;;5054953;28;20454;-47
2022/12/03 00:09:39;;;;;;;21.77;11.80;;;1.10;99.90;;;;;;5054843;28;20458;-47
2022/12/03 00:12:06;;;;;;;15.57;9.47;;;1.10;99.90;;;;;;5054732;28;20489;-50
2022/12/03 00:14:32;;;;;;;19.50;11.83;;;1.10;99.90;;;;;;5054284;28;20468;-48
2022/12/03 00:17:00;;;;;;;19.43;11.10;;;1.10;99.90;;;;;;5034203;28;20809;-50
2022/12/03 00:19:27;;;;;;;22.23;12.63;;;1.20;99.90;;;;;;5034625;28;20999;-50
2022/12/03 00:21:54;;;;;;;18.23;10.30;;;1.10;99.90;;;;;;5034581;28;20821;-55
2022/12/03 00:24:20;;;;;;;18.30;10.80;;;1.10;99.90;;;;;;5034312;28;20499;-51
2022/12/03 00:26:47;;;;;;;15.63;8.30;;;1.10;99.90;;;;;;5034420;28;20469;-52
2022/12/03 00:29:14;;;;;;;18.97;11.80;;;1.10;99.90;;;;;;5034210;28;20457;-51
2022/12/03 00:31:41;;;;;;;19.43;10.97;;;1.10;99.90;;;;;;5034313;28;20870;-52
2022/12/03 00:34:09;;;;;;;23.50;13.23;;;1.10;99.90;;;;;;5034060;28;20900;-53
2022/12/03 00:36:36;;;;;;;17.80;10.47;;;1.10;99.90;;;;;;5033497;28;20990;-51
2022/12/03 00:39:03;;;;;;;17.23;10.03;;;1.10;99.90;;;;;;5034637;28;20445;-51
2022/12/03 00:41:30;;;;;;;11.87;7.70;;;1.10;99.90;;;;;;5034089;28;20448;-51
2022/12/03 00:43:57;;;;;;;17.30;10.20;;;1.20;99.90;;;;;;5050406;28;20437;-51
2022/12/03 00:46:24;;;;;;;8.50;5.77;;;1.20;99.90;;;;;;5041748;28;20473;-50
2022/12/03 00:48:50;;;;;;;18.00;10.17;;;1.20;99.90;;;;;;5044414;28;20883;-52
2022/12/03 00:51:19;;;;;;;17.73;11.23;;;1.30;99.90;;;;;;5044996;28;20455;-48
2022/12/03 00:53:45;;;;;;;22.63;11.23;;;1.20;99.90;;;;;;5053679;28;20493;-53
2022/12/03 00:56:12;;;;;;;19.27;11.13;;;1.20;99.90;;;;;;5053414;28;20633;-55
2022/12/03 00:58:39;;;;;;;20.73;11.30;;;1.20;99.90;;;;;;5053350;28;20452;-53
2022/12/03 01:01:06;;;;;;;17.70;10.90;;;1.20;99.90;;;;;;5053421;28;21016;-47
2022/12/03 01:03:32;;;;;;;20.03;11.23;;;1.20;99.90;;;;;;5053438;28;20458;-53
2022/12/03 01:05:59;;;;;;;21.33;12.57;;;1.30;99.90;;;;;;5053082;28;20472;-50
2022/12/03 01:08:27;;;;;;;20.57;11.77;;;1.30;99.90;;;;;;5053403;28;20454;-53
2022/12/03 01:10:54;;;;;;;16.93;10.03;;;1.20;99.90;;;;;;5053369;28;20462;-51
2022/12/03 01:13:20;;;;;;;17.27;10.30;;;1.20;99.90;;;;;;5053073;28;20480;-53
2022/12/03 01:15:47;;;;;;;21.83;11.77;;;1.20;99.90;;;;;;5053346;28;20464;-51
2022/12/03 01:18:14;;;;;;;16.67;9.77;;;1.20;99.90;;;;;;5053006;28;20450;-50
2022/12/03 01:20:40;;;;;;;19.27;10.93;;;1.10;99.90;;;;;;5053298;28;20457;-50
2022/12/03 01:23:07;;;;;;;20.10;11.83;;;1.20;99.90;;;;;;5052763;28;20444;-53
2022/12/03 01:25:35;;;;;;;20.47;11.90;;;1.20;99.90;;;;;;5053043;28;20476;-55
2022/12/03 01:28:02;;;;;;;17.70;9.27;;;1.20;99.90;;;;;;5052512;28;20450;-54
2022/12/03 01:32:15;;;;;;;19.67;10.80;;;1.10;99.90;;;;;;5053035;28;20452;-50
2022/12/03 01:33:14;;;;;;;16.73;10.37;;;1.10;99.90;;;;;;5052481;28;20486;-54
2022/12/03 01:35:41;;;;;;;21.90;12.13;;;1.10;99.90;;;;;;5052651;28;20559;-54
2022/12/03 01:38:07;;;;;;;23.43;12.80;;;1.20;99.90;;;;;;5052300;28;20217;-55
2022/12/03 01:40:35;;;;;;;24.97;12.90;;;1.10;99.90;;;;;;5052497;28;20452;-50
2022/12/03 01:43:02;;;;;;;24.23;12.67;;;1.10;99.90;;;;;;5052790;28;20437;-52
2022/12/03 01:45:29;;;;;;;14.13;8.53;;;1.20;99.90;;;;;;5052436;28;20570;-54
2022/12/03 01:47:55;;;;;;;20.77;12.10;;;1.20;99.90;;;;;;5052456;28;20517;-57
2022/12/03 01:50:30;;;;;;;22.67;12.93;;;1.20;99.90;;;;;;5052531;28;20497;-51
2022/12/03 01:53:00;;;;;;;22.07;12.33;;;1.10;99.90;;;;;;5052271;28;20480;-52
2022/12/03 01:55:27;;;;;;;19.27;12.07;;;1.10;99.90;;;;;;5052625;28;20494;-50
2022/12/03 01:57:58;;;;;;;24.60;13.47;;;1.10;99.90;;;;;;5052134;28;20456;-56
2022/12/03 02:00:26;;;;;;;18.13;11.10;;;1.10;99.90;;;;;;5052468;28;20474;-55
2022/12/03 02:02:55;;;;;;;20.07;11.50;;;1.10;99.90;;;;;;5051930;28;20454;-53
2022/12/03 02:05:25;;;;;;;13.87;7.93;;;1.10;99.90;;;;;;5051843;28;20467;-50
2022/12/03 02:07:52;;;;;;;21.57;11.33;;;1.10;99.90;;;;;;5052176;28;20459;-48
2022/12/03 02:10:23;;;;;;;21.77;12.13;;;1.10;99.90;;;;;;5052181;28;20452;-53
2022/12/03 02:12:54;;;;;;;24.03;12.87;;;1.10;99.90;;;;;;5052242;28;20451;-52
2022/12/03 02:15:23;;;;;;;23.90;13.47;;;1.10;99.90;;;;;;5051946;28;20464;-53
2022/12/03 02:17:50;;;;;;;24.17;12.03;;;1.10;99.90;;;;;;5051804;28;20513;-53
2022/12/03 02:20:17;;;;;;;27.07;13.37;;;1.10;99.90;;;;;;5052160;28;20452;-54
2022/12/03 02:22:53;;;;;;;19.60;9.97;;;1.20;99.90;;;;;;5052099;28;20514;-50
2022/12/03 02:25:23;;;;;;;22.10;11.73;;;1.20;99.90;;;;;;5052185;28;20806;-49
2022/12/03 02:27:50;;;;;;;28.57;14.23;;;1.10;99.90;;;;;;5051921;28;20459;-54
2022/12/03 02:30:19;;;;;;;26.53;13.43;;;1.10;99.90;;;;;;5051786;28;20456;-54
2022/12/03 02:32:46;;;;;;;22.83;12.30;;;1.10;99.90;;;;;;5052085;28;20460;-54
2022/12/03 02:35:15;;;;;;;19.57;10.97;;;1.10;99.90;;;;;;5051771;28;20530;-56
2022/12/03 02:37:43;;;;;;;19.00;11.70;;;1.10;99.90;;;;;;5051358;28;20865;-55
2022/12/03 02:40:14;;;;;;;21.13;12.20;;;1.10;99.90;;;;;;5051799;28;20922;-53
2022/12/03 02:42:42;;;;;;;24.17;12.90;;;1.10;99.90;;;;;;5051817;28;21003;-55
2022/12/03 02:45:12;;;;;;;20.07;10.20;;;1.10;99.90;;;;;;5051520;28;20467;-53
2022/12/03 02:47:42;;;;;;;20.73;11.37;;;1.10;99.90;;;;;;5051858;28;20455;-53
2022/12/03 02:50:12;;;;;;;22.13;11.87;;;1.10;99.90;;;;;;5051746;28;20530;-52
2022/12/03 02:52:40;;;;;;;24.80;14.03;;;1.00;99.90;;;;;;5051937;28;20454;-49
2022/12/03 02:55:08;;;;;;;20.60;10.27;;;1.00;99.90;;;;;;5051463;28;20564;-48
2022/12/03 02:57:37;;;;;;;22.53;12.67;;;1.10;99.90;;;;;;5051537;28;20508;-52
2022/12/03 03:00:08;;;;;;;28.07;14.07;;;1.00;99.90;;;;;;5051638;28;20501;-53
2022/12/03 03:02:36;;;;;;;20.97;11.17;;;1.10;99.90;;;;;;5051757;28;21049;-57
2022/12/03 03:05:04;;;;;;;27.00;13.37;;;1.10;99.90;;;;;;5051704;28;20548;-50
2022/12/03 03:07:31;;;;;;;23.23;11.90;;;1.10;99.90;;;;;;5051588;28;20452;-50
2022/12/03 03:09:58;;;;;;;24.63;12.80;;;1.10;99.90;;;;;;5051483;28;20452;-57
2022/12/03 03:12:25;;;;;;;21.20;10.53;;;1.00;99.90;;;;;;5051806;28;20462;-56
2022/12/03 03:14:52;;;;;;;26.57;12.13;;;1.00;99.90;;;;;;5053234;28;20994;-55
2022/12/03 03:17:20;;;;;;;20.47;11.93;;;1.00;99.90;;;;;;5055138;28;20456;-53
2022/12/03 03:19:47;;;;;;;27.83;12.13;;;1.00;99.90;;;;;;5055647;28;20457;-52
2022/12/03 03:22:13;;;;;;;26.57;12.43;;;1.00;99.90;;;;;;5055351;28;20459;-47
2022/12/03 03:24:40;;;;;;;30.27;12.60;;;1.00;99.90;;;;;;5055360;28;20825;-54
2022/12/03 03:27:07;;;;;;;26.43;13.90;;;1.00;99.90;;;;;;5055549;28;20459;-49
2022/12/03 03:29:34;;;;;;;23.97;12.07;;;1.00;99.90;;;;;;5055357;28;20452;-50
2022/12/03 03:32:01;;;;;;;28.17;12.40;;;1.00;99.90;;;;;;5055189;28;20482;-50
2022/12/03 03:34:30;;;;;;;32.27;13.60;;;1.00;99.90;;;;;;5054957;28;20598;-52
2022/12/03 03:36:57;;;;;;;23.60;11.47;;;1.00;99.90;;;;;;5054690;28;20464;-50
2022/12/03 03:39:24;;;;;;;22.40;10.43;;;1.00;99.90;;;;;;5055091;28;20448;-48
2022/12/03 03:41:51;;;;;;;25.40;11.90;;;1.00;99.90;;;;;;5055367;28;20443;-50
2022/12/03 03:44:18;;;;;;;24.90;11.93;;;1.00;99.90;;;;;;5055160;28;20486;-50
2022/12/03 03:46:45;;;;;;;24.10;11.67;;;0.90;99.90;;;;;;5054609;28;20474;-53
2022/12/03 03:49:12;;;;;;;27.00;12.90;;;0.90;99.90;;;;;;5055013;28;20828;-52
2022/12/03 03:51:41;;;;;;;16.13;8.67;;;0.90;99.90;;;;;;5054732;28;20450;-49
2022/12/03 03:54:08;;;;;;;28.47;12.10;;;0.90;99.90;;;;;;5054685;28;20487;-49
2022/12/03 03:56:35;;;;;;;32.43;13.23;;;0.90;99.90;;;;;;5054593;28;20477;-54
2022/12/03 03:59:02;;;;;;;27.37;11.90;;;0.90;99.90;;;;;;5054827;28;20509;-54
2022/12/03 04:01:30;;;;;;;27.63;11.73;;;0.90;99.90;;;;;;5054665;28;20541;-50
2022/12/03 04:03:58;;;;;;;21.67;10.93;;;0.90;99.90;;;;;;5054684;28;20443;-54
2022/12/03 04:06:25;;;;;;;27.00;10.93;;;0.90;99.90;;;;;;5054720;28;20517;-50
2022/12/03 04:08:53;;;;;;;27.00;12.37;;;0.90;99.90;;;;;;5054494;28;20864;-52
2022/12/03 04:14:12;;;;;;;27.77;11.87;;;0.80;99.90;;;;;;5029656;28;20840;-47
2022/12/03 04:16:39;;;;;;;33.43;13.43;;;0.90;99.90;;;;;;5054013;28;20528;-50
2022/12/03 04:19:05;;;;;;;29.03;11.80;;;0.90;99.90;;;;;;5054410;28;20453;-50
2022/12/03 04:24:17;;;;;;;23.73;9.60;;;0.90;99.90;;;;;;5054481;28;20427;-49
2022/12/03 04:29:28;;;;;;;30.47;13.30;;;0.80;99.90;;;;;;5054021;28;20566;-51
2022/12/03 04:37:23;;;;;;;26.50;11.93;;;0.80;99.90;;;;;;5053865;28;20473;-56
2022/12/03 04:39:51;;;;;;;30.67;12.47;;;0.80;99.90;;;;;;5053955;28;20507;-53
2022/12/03 04:42:18;;;;;;;30.37;12.73;;;0.80;99.90;;;;;;5054066;28;20513;-53
2022/12/03 04:44:45;;;;;;;31.27;13.87;;;0.80;99.90;;;;;;5053419;28;20445;-51
2022/12/03 04:47:14;;;;;;;32.50;12.93;;;0.80;99.90;;;;;;5053755;28;20446;-50
2022/12/03 04:49:43;;;;;;;30.67;12.93;;;0.80;99.90;;;;;;5053861;28;20481;-51
2022/12/03 04:52:11;;;;;;;28.70;12.73;;;0.90;99.90;;;;;;5053434;28;20455;-52
2022/12/03 04:54:38;;;;;;;28.73;11.60;;;0.80;99.90;;;;;;5053764;28;20495;-52
2022/12/03 04:57:06;;;;;;;26.43;12.40;;;0.90;99.90;;;;;;5053533;28;20451;-55
2022/12/03 04:59:33;;;;;;;27.40;12.17;;;0.90;99.90;;;;;;5053167;28;20817;-51
2022/12/03 05:02:00;;;;;;;26.67;12.73;;;0.80;99.90;;;;;;5053662;28;20452;-53
2022/12/03 05:04:27;;;;;;;29.40;13.40;;;0.80;99.90;;;;;;5053543;28;20446;-52
2022/12/03 05:06:54;;;;;;;32.00;12.50;;;0.80;99.90;;;;;;5053385;28;20474;-53
2022/12/03 05:09:21;;;;;;;29.40;12.23;;;0.80;99.90;;;;;;5052948;28;20949;-53
2022/12/03 05:11:47;;;;;;;26.90;12.13;;;0.90;99.90;;;;;;5053327;28;20864;-55
2022/12/03 05:14:15;;;;;;;32.63;12.93;;;0.80;99.90;;;;;;5052880;28;20478;-53
2022/12/03 05:16:42;;;;;;;31.70;13.37;;;0.80;99.90;;;;;;5053078;28;20475;-53
2022/12/03 05:19:09;;;;;;;26.83;11.00;;;0.80;99.90;;;;;;5052987;28;20478;-54
2022/12/03 05:21:35;;;;;;;32.97;12.07;;;0.70;99.90;;;;;;5053528;28;20512;-50
2022/12/03 05:24:01;;;;;;;28.07;13.27;;;0.70;99.90;;;;;;5053349;28;20481;-53
2022/12/03 05:26:28;;;;;;;24.63;11.63;;;0.70;99.90;;;;;;5052843;28;20227;-54
2022/12/03 05:28:55;;;;;;;28.90;11.97;;;0.70;99.90;;;;;;5052980;28;20450;-53
2022/12/03 05:31:23;;;;;;;30.73;12.67;;;0.70;99.90;;;;;;5052714;28;20454;-55
2022/12/03 05:33:50;;;;;;;31.37;13.87;;;0.80;99.90;;;;;;5052838;28;20503;-55
2022/12/03 05:36:16;;;;;;;27.97;12.90;;;0.70;99.90;;;;;;5052720;28;20479;-52
2022/12/03 05:38:43;;;;;;;31.40;12.57;;;0.70;99.90;;;;;;5051822;28;20497;-56
2022/12/03 05:43:50;;;;;;;37.90;13.53;;;0.80;99.90;;;;;;5051718;28;20431;-51
2022/12/03 05:46:17;;;;;;;21.53;7.87;;;0.80;99.90;;;;;;5052167;28;21006;-54
2022/12/03 05:48:45;;;;;;;29.30;12.77;;;0.70;99.90;;;;;;5053190;28;20528;-53
2022/12/03 05:51:12;;;;;;;29.63;11.50;;;0.70;99.90;;;;;;5052891;28;20447;-55
2022/12/03 05:53:39;;;;;;;22.20;9.93;;;0.70;99.90;;;;;;5052682;28;20474;-55
2022/12/03 05:56:06;;;;;;;19.33;9.47;;;0.70;99.90;;;;;;5052218;28;20470;-56
2022/12/03 05:58:33;;;;;;;27.63;12.93;;;0.60;99.90;;;;;;5052443;28;20868;-55
2022/12/03 06:00:59;;;;;;;35.00;14.13;;;0.60;99.90;;;;;;5052539;28;20827;-56
2022/12/03 06:03:26;;;;;;;34.80;13.23;;;0.60;99.90;;;;;;5052711;28;20502;-53
2022/12/03 06:05:54;;;;;;;30.83;13.10;;;0.60;99.90;;;;;;5051986;28;20546;-53
2022/12/03 06:08:21;;;;;;;30.20;13.43;;;0.60;99.90;;;;;;5052548;28;20500;-51
2022/12/03 06:10:48;;;;;;;29.80;12.83;;;0.60;99.90;;;;;;5052372;28;20450;-57
2022/12/03 06:13:14;;;;;;;36.67;12.87;;;0.60;99.90;;;;;;5052186;28;20455;-50
2022/12/03 06:15:41;;;;;;;33.83;13.87;;;0.70;99.90;;;;;;5051605;28;20489;-56
2022/12/03 06:18:08;;;;;;;33.80;13.57;;;0.60;99.90;;;;;;5052046;28;20478;-51
2022/12/03 06:20:34;;;;;;;28.03;13.50;;;0.60;99.90;;;;;;5051818;28;20518;-55
2022/12/03 06:23:02;;;;;;;32.33;13.53;;;0.70;99.90;;;;;;5052194;28;20452;-54
2022/12/03 06:25:29;;;;;;;30.03;11.67;;;0.70;99.90;;;;;;5051856;28;20478;-52
2022/12/03 06:27:55;;;;;;;28.73;13.13;;;0.60;99.90;;;;;;5051764;28;20445;-53
2022/12/03 06:30:22;;;;;;;29.83;14.33;;;0.60;99.90;;;;;;5051967;28;20454;-54
2022/12/03 06:32:49;;;;;;;26.33;11.03;;;0.60;99.90;;;;;;5052006;28;20449;-51
2022/12/03 06:35:15;;;;;;;23.93;10.20;;;0.60;99.90;;;;;;5051720;28;20499;-53
2022/12/03 06:37:42;;;;;;;30.80;12.33;;;0.50;99.90;;;;;;5051307;28;20460;-54
2022/12/03 06:40:12;;;;;;;35.03;12.70;;;0.50;99.90;;;;;;5051773;28;20831;-52
2022/12/03 06:42:38;;;;;;;19.77;8.73;;;0.60;99.90;;;;;;5051832;28;20450;-55
2022/12/03 06:45:06;;;;;;;27.27;12.63;;;0.60;99.90;;;;;;5047403;28;20465;-53
2022/12/03 06:47:33;;;;;;;27.97;12.20;;;0.50;99.90;;;;;;5047821;28;20500;-52
2022/12/03 06:49:59;;;;;;;28.70;11.30;;;0.50;99.90;;;;;;5039802;28;20444;-53
2022/12/03 06:52:26;;;;;;;32.23;13.10;;;0.50;99.90;;;;;;5039965;28;20450;-51
2022/12/03 06:54:53;;;;;;;25.87;11.03;;;0.50;99.90;;;;;;5031271;28;20494;-55
2022/12/03 06:57:21;;;;;;;28.13;12.13;;;0.50;99.90;;;;;;5031628;28;20459;-53
2022/12/03 06:59:47;;;;;;;28.10;11.83;;;0.50;99.90;;;;;;5031614;28;20510;-55
2022/12/03 07:02:14;;;;;;;28.47;12.33;;;0.50;99.90;;;;;;5031819;28;20499;-53
2022/12/03 07:04:41;;;;;;;25.80;11.57;;;0.50;99.90;;;;;;5031726;28;20550;-50
2022/12/03 07:07:07;;;;;;;31.50;12.50;;;0.60;99.90;;;;;;5031335;28;20459;-51
2022/12/03 07:09:34;;;;;;;31.97;14.03;;;0.50;99.90;;;;;;5031559;28;20456;-48
2022/12/03 07:12:00;;;;;;;35.87;14.17;;;0.50;99.90;;;;;;5031685;28;20452;-51
2022/12/03 07:14:28;;;;;;;36.63;13.23;;;0.50;99.90;;;;;;5047124;28;20480;-53
2022/12/03 07:16:55;;;;;;;32.70;12.50;;;0.60;99.90;;;;;;5054746;28;20475;-48
2022/12/03 07:19:22;;;;;;;33.23;12.87;;;0.60;99.90;;;;;;5051726;28;20451;-48
2022/12/03 07:21:48;;;;;;;29.03;13.17;;;0.50;99.90;;;;;;5051118;28;20450;-53
2022/12/03 07:24:15;;;;;;;24.10;11.70;;;0.50;99.90;;;;;;5051158;28;20458;-47
2022/12/03 07:26:42;;;;;;;25.57;12.27;;;0.50;99.90;;;;;;5051421;28;20479;-50
2022/12/03 07:29:08;;;;;;;34.47;13.17;;;0.50;99.90;;;;;;5051418;28;20857;-50
2022/12/03 07:31:36;;;;;;;29.50;13.07;;;0.50;99.90;;;;;;5051426;28;20970;-47
2022/12/03 07:34:03;;;;;;;28.07;12.70;;;0.50;99.90;;;;;;5051045;28;20510;-51
2022/12/03 07:36:30;;;;;;;32.97;13.50;;;0.50;99.90;;;;;;5051006;28;20490;-53
2022/12/03 07:38:56;;;;;;;29.40;13.37;;;0.50;99.90;;;;;;5051081;28;20469;-50
2022/12/03 07:41:23;;;;;;;31.97;13.53;;;0.50;99.90;;;;;;5051579;28;20449;-51
2022/12/03 07:43:50;;;;;;;24.37;12.23;;;0.40;99.90;;;;;;5051227;28;20455;-51
2022/12/03 07:46:17;;;;;;;30.90;14.10;;;0.40;99.90;;;;;;5050663;28;20515;-57
2022/12/03 07:48:45;;;;;;;32.97;13.63;;;0.50;99.90;;;;;;5051213;28;20501;-55
2022/12/03 07:51:12;;;;;;;26.37;12.00;;;0.50;99.90;;;;;;5051249;28;20876;-50
2022/12/03 07:53:38;;;;;;;29.00;12.07;;;0.60;99.90;;;;;;5051208;28;20461;-52
2022/12/03 07:56:06;;;;;;;35.27;13.90;;;0.50;99.90;;;;;;5051298;28;20493;-54
2022/12/03 07:58:33;;;;;;;32.37;13.90;;;0.50;99.90;;;;;;5051843;28;20544;-52
2022/12/03 08:00:59;;;;;;;32.03;13.93;;;0.50;99.90;;;;;;5052279;28;20458;-52
2022/12/03 08:03:26;;;;;;;26.67;12.67;;;0.50;99.90;;;;;;5055041;28;20460;-59
2022/12/03 08:05:54;;;;;;;29.30;13.80;;;0.60;99.90;;;;;;5054553;28;20466;-58
2022/12/03 08:08:21;;;;;;;28.07;13.10;;;0.60;99.90;;;;;;5054758;28;20462;-60
2022/12/03 08:10:47;;;;;;;32.13;14.40;;;0.60;99.90;;;;;;5054630;28;20463;-58
2022/12/03 08:13:16;;;;;;;33.67;13.90;;;0.70;99.90;;;;;;5054523;28;20453;-58
2022/12/03 08:15:43;;;;;;;25.23;11.87;;;0.60;99.90;;;;;;5054210;28;20861;-57
2022/12/03 08:18:14;;;;;;;33.50;15.70;;;0.60;99.90;;;;;;5054291;28;20504;-59
2022/12/03 08:20:42;;;;;;;26.63;11.67;;;0.60;99.90;;;;;;5054584;28;20462;-58
2022/12/03 08:23:15;;;;;;;29.20;13.67;;;0.50;99.90;;;;;;5054603;28;20501;-54
2022/12/03 08:25:42;;;;;;;30.80;13.93;;;0.50;99.90;;;;;;5054292;28;20497;-59
2022/12/03 08:28:14;;;;;;;31.50;14.60;;;0.50;99.90;;;;;;5054012;28;20454;-57
2022/12/03 08:30:41;;;;;;;24.70;10.70;;;0.60;99.90;;;;;;5053703;28;20455;-55
2022/12/03 08:33:17;;;;;;;27.27;13.07;;;0.50;99.90;;;;;;5053774;28;20475;-58
2022/12/03 08:35:49;;;;;;;30.93;12.13;;;0.50;99.90;;;;;;5053882;28;20638;-59
2022/12/03 08:38:20;;;;;;;30.67;12.83;;;0.60;99.90;;;;;;5053545;28;20549;-59
2022/12/03 08:40:48;;;;;;;28.80;12.47;;;0.60;99.90;;;;;;5054175;28;20534;-59
2022/12/03 08:43:19;;;;;;;32.30;12.77;;;0.50;99.90;;;;;;5053795;28;21117;-58
2022/12/03 08:45:48;;;;;;;27.47;13.13;;;0.60;99.90;;;;;;5053877;28;20466;-58
2022/12/03 08:48:31;;;;;;;27.07;13.47;;;0.70;99.90;;;;;;5053985;28;20465;-57
2022/12/03 08:51:00;;;;;;;27.13;10.57;;;0.70;99.90;;;;;;5054035;28;20455;-57
2022/12/03 08:53:31;;;;;;;25.00;11.63;;;0.60;99.90;;;;;;5053992;28;20466;-57
2022/12/03 08:55:59;;;;;;;30.50;15.80;;;0.60;99.90;;;;;;5053648;28;20498;-59
2022/12/03 08:58:33;;;;;;;33.40;13.77;;;0.60;99.90;;;;;;5053957;28;20454;-60
2022/12/03 09:01:14;;;;;;;25.77;11.07;;;0.60;99.90;;;;;;5053708;28;20531;-58
2022/12/03 09:03:51;;;;;;;28.67;12.53;;;0.70;99.90;;;;;;5053663;28;20451;-59
2022/12/03 09:06:18;;;;;;;24.57;11.77;;;0.70;99.90;;;;;;5053501;28;20868;-58
2022/12/03 09:08:46;;;;;;;39.80;15.13;;;0.70;99.90;;;;;;5053474;28;20459;-57
2022/12/03 09:11:13;;;;;;;28.40;12.97;;;0.60;99.90;;;;;;5053375;28;20528;-57
2022/12/03 09:13:40;;;;;;;28.93;13.03;;;0.70;99.90;;;;;;5053152;28;20447;-57
2022/12/03 09:16:07;;;;;;;28.77;13.67;;;0.70;99.90;;;;;;5052890;28;20496;-57
2022/12/03 09:18:34;;;;;;;34.43;15.20;;;0.70;99.90;;;;;;5053271;28;20500;-59
2022/12/03 09:21:01;;;;;;;35.67;15.43;;;0.80;99.90;;;;;;5052262;28;20869;-57
2022/12/03 09:23:27;;;;;;;33.07;14.50;;;0.80;99.90;;;;;;5053397;28;20446;-57
2022/12/03 09:25:55;;;;;;;37.13;14.90;;;0.80;99.90;;;;;;5052804;28;20512;-57
2022/12/03 09:28:22;;;;;;;33.97;15.70;;;0.80;99.90;;;;;;5053032;28;20452;-59
2022/12/03 09:30:49;;;;;;;16.40;8.70;;;0.90;99.90;;;;;;5052837;28;20459;-56
2022/12/03 09:33:15;;;;;;;29.40;12.93;;;0.90;99.90;;;;;;5052907;28;20454;-57
2022/12/03 09:35:43;;;;;;;32.97;12.60;;;0.90;99.90;;;;;;5052840;28;20489;-57
2022/12/03 09:38:10;;;;;;;35.07;14.83;;;0.90;99.90;;;;;;5052808;28;20672;-54
2022/12/03 09:40:37;;;;;;;33.13;14.40;;;1.00;99.90;;;;;;5052959;28;20454;-55
2022/12/03 09:43:06;;;;;;;30.20;14.40;;;1.00;99.90;;;;;;5052890;28;20446;-57
2022/12/03 09:45:32;;;;;;;28.70;13.87;;;1.00;99.90;;;;;;5052545;28;20467;-57
2022/12/03 09:48:02;;;;;;;25.17;10.73;;;0.90;99.90;;;;;;5052634;28;20927;-57
2022/12/03 09:50:30;;;;;;;41.00;15.07;;;0.90;99.90;;;;;;5052893;28;20538;-57
2022/12/03 09:53:01;;;;;;;20.47;9.33;;;1.00;99.90;;;;;;5052612;28;20459;-57
2022/12/03 09:55:29;;;;;;;29.33;12.00;;;1.00;99.90;;;;;;5052497;28;20484;-57
2022/12/03 09:57:57;;;;;;;20.77;10.67;;;1.00;99.90;;;;;;5052395;28;20455;-59
2022/12/03 10:00:28;;;;;;;29.93;13.50;;;0.90;99.90;;;;;;5052351;28;20546;-59
2022/12/03 10:02:57;;;;;;;34.60;13.93;;;1.00;99.90;;;;;;5052320;28;20446;-56
2022/12/03 10:05:24;;;;;;;26.07;11.03;;;1.00;99.90;;;;;;5052417;28;20475;-58
2022/12/03 10:07:52;;;;;;;31.47;13.03;;;1.00;97.90;;;;;;5051923;28;20539;-59
2022/12/03 10:10:21;;;;;;;30.17;13.50;;;1.00;99.90;;;;;;5052289;28;20503;-58
2022/12/03 10:12:49;;;;;;;30.30;13.83;;;0.90;99.80;;;;;;5052057;28;20467;-59
2022/12/03 10:15:18;;;;;;;28.30;12.73;;;0.90;99.90;;;;;;5052081;28;21065;-59
2022/12/03 10:17:49;;;;;;;33.77;15.10;;;0.90;99.90;;;;;;5052056;28;20501;-59
2022/12/03 10:20:18;;;;;;;15.97;8.17;;;0.90;99.90;;;;;;5051907;28;20504;-58
2022/12/03 10:22:47;;;;;;;26.70;11.33;;;0.90;99.90;;;;;;5052176;28;20742;-59
2022/12/03 10:25:16;;;;;;;34.83;13.33;;;0.90;99.90;;;;;;5051528;28;20472;-60
2022/12/03 10:27:43;;;;;;;30.13;13.47;;;1.00;99.90;;;;;;5052099;28;20459;-59
2022/12/03 10:30:17;;;;;;;33.63;14.83;;;0.90;98.50;;;;;;5046768;28;20451;-59
2022/12/03 10:32:47;;;;;;;21.63;12.10;;;0.90;99.90;;;;;;5051114;28;20540;-56
2022/12/03 10:35:16;;;;;;;31.93;13.77;;;0.90;99.90;;;;;;5051629;28;20532;-57
2022/12/03 10:37:57;;;;;;;23.97;10.23;;;1.00;99.90;;;;;;5051262;28;20463;-58
2022/12/03 10:40:27;;;;;;;22.90;10.33;;;1.10;96.00;;;;;;5051268;28;20937;-57
2022/12/03 10:43:13;;;;;;;32.10;12.90;;;1.00;96.40;;;;;;5051676;28;20446;-57
2022/12/03 10:45:40;;;;;;;32.40;14.20;;;0.90;93.10;;;;;;5051236;28;20467;-58
2022/12/03 10:48:13;;;;;;;29.50;14.10;;;0.90;96.00;;;;;;5051112;28;20459;-61
2022/12/03 10:50:48;;;;;;;30.50;13.83;;;1.00;99.10;;;;;;5051095;28;20509;-59
2022/12/03 10:53:15;;;;;;;31.47;15.20;;;1.00;99.90;;;;;;5051258;28;20975;-60
2022/12/03 10:55:44;;;;;;;23.80;10.57;;;1.00;99.90;;;;;;5045062;28;20525;-61
2022/12/03 10:58:21;;;;;;;30.47;14.20;;;1.00;96.00;;;;;;5050502;28;20439;-60
2022/12/03 11:00:48;;;;;;;26.40;13.27;;;1.00;98.20;;;;;;5050407;28;21282;-58
2022/12/03 11:03:22;;;;;;;33.00;14.80;;;1.00;99.40;;;;;;5051311;28;20480;-59
2022/12/03 11:05:49;;;;;;;32.33;14.57;;;1.00;99.90;;;;;;5051106;28;20893;-60
2022/12/03 11:08:19;;;;;;;31.23;14.80;;;1.00;99.90;;;;;;5050675;28;20943;-57
2022/12/03 11:10:49;;;;;;;34.07;16.07;;;1.10;99.90;;;;;;5050759;28;20898;-61
2022/12/03 11:13:45;;;;;;;33.47;15.10;;;1.10;98.80;;;;;;5050777;28;20451;-60
2022/12/03 11:16:13;;;;;;;29.13;14.47;;;1.10;99.30;;;;;;5043531;28;20992;-60
2022/12/03 11:19:01;;;;;;;25.47;12.60;;;1.10;98.00;;;;;;5051109;28;20457;-58
2022/12/03 11:21:31;;;;;;;27.30;11.30;;;1.10;96.30;;;;;;5050555;28;20889;-60
2022/12/03 11:24:20;;;;;;;30.50;14.57;;;1.00;94.60;;;;;;5051364;28;20451;-59
2022/12/03 11:27:06;;;;;;;24.50;11.43;;;1.10;98.50;;;;;;5050484;28;21290;-60
2022/12/03 11:29:57;;;;;;;23.97;11.63;;;1.10;97.90;;;;;;5049705;28;20486;-55
2022/12/03 11:33:03;;;;;;;20.33;7.97;;;1.10;95.40;;;;;;5048077;28;20458;-56
2022/12/03 11:36:04;;;;;;;32.23;13.93;;;1.10;97.80;;;;;;5030688;28;20839;-59
2022/12/03 11:38:45;;;;;;;30.50;13.97;;;1.10;92.50;;;;;;5034572;28;20886;-58
2022/12/03 11:41:14;;;;;;;35.77;13.87;;;1.10;98.20;;;;;;5034580;28;20483;-58
2022/12/03 11:44:00;;;;;;;19.00;11.30;;;1.10;99.90;;;;;;5047770;28;20505;-59
2022/12/03 11:46:29;;;;;;;31.47;13.40;;;1.10;98.70;;;;;;5047378;28;20452;-57
2022/12/03 11:48:59;;;;;;;28.63;11.40;;;1.10;97.30;;;;;;5050857;28;20437;-59
2022/12/03 11:51:29;;;;;;;27.70;12.93;;;1.10;99.80;;;;;;5049536;28;20870;-59
2022/12/03 11:53:58;;;;;;;30.37;13.83;;;1.10;99.90;;;;;;5054386;28;20444;-60
2022/12/03 11:56:27;;;;;;;36.07;16.00;;;1.10;99.90;;;;;;5053876;28;20493;-57
2022/12/03 11:58:59;;;;;;;31.03;13.77;;;1.20;99.90;;;;;;5054016;28;20448;-60
2022/12/03 12:01:33;;;;;;;28.70;13.00;;;1.20;99.90;;;;;;5054134;28;20652;-59
2022/12/03 12:04:00;;;;;;;29.07;13.20;;;1.30;99.90;;;;;;5054282;28;20502;-59
2022/12/03 12:06:28;;;;;;;23.80;11.60;;;1.30;91.40;;;;;;5053893;28;20879;-59
2022/12/03 12:08:57;;;;;;;27.27;12.47;;;1.20;78.10;;;;;;5054497;28;20447;-57
2022/12/03 12:11:27;;;;;;;30.30;14.53;;;1.20;79.90;;;;;;5053866;28;20450;-59
2022/12/03 12:13:55;;;;;;;30.57;13.33;;;1.20;88.80;;;;;;5051419;28;20943;-58
2022/12/03 12:16:44;;;;;;;24.27;9.63;;;1.20;83.20;;;;;;5041707;28;20499;-59
2022/12/03 12:19:38;;;;;;;31.33;15.67;;;1.20;81.50;;;;;;5047569;28;20457;-55
2022/12/03 12:22:19;;;;;;;38.23;15.47;;;1.20;97.40;;;;;;5045943;28;20531;-58
2022/12/03 12:24:53;;;;;;;27.23;13.23;;;1.20;92.40;;;;;;5053758;28;20465;-58
2022/12/03 12:27:22;;;;;;;19.17;10.33;;;1.20;74.30;;;;;;5054076;28;20494;-58
2022/12/03 12:29:54;;;;;;;21.50;10.20;;;1.20;81.40;;;;;;5054077;28;20458;-57
2022/12/03 12:32:28;;;;;;;29.53;14.53;;;1.10;84.20;;;;;;5052614;28;21022;-58
2022/12/03 12:34:59;;;;;;;36.23;16.17;;;1.20;88.50;;;;;;5053339;28;20530;-58
2022/12/03 12:37:34;;;;;;;34.13;15.67;;;1.20;90.10;;;;;;5053396;28;21051;-54
2022/12/03 12:40:01;;;;;;;31.63;14.13;;;1.20;92.40;;;;;;5044423;28;20457;-57
2022/12/03 12:42:31;;;;;;;30.50;14.37;;;1.20;91.10;;;;;;5053274;28;20454;-56
2022/12/03 12:45:05;;;;;;;32.40;13.87;;;1.20;82.20;;;;;;5052929;28;20466;-55
2022/12/03 12:47:32;;;;;;;30.07;14.93;;;1.20;84.00;;;;;;5052822;28;20448;-56
2022/12/03 12:49:59;;;;;;;29.83;13.83;;;1.20;90.60;;;;;;5053023;28;20501;-58
2022/12/03 12:52:27;;;;;;;37.43;15.23;;;1.20;92.00;;;;;;5053333;28;20466;-60
2022/12/03 12:54:54;;;;;;;29.23;14.10;;;1.10;84.60;;;;;;5053011;28;20879;-59
2022/12/03 12:57:23;;;;;;;33.33;14.20;;;1.10;93.30;;;;;;5052679;28;20591;-61
2022/12/03 12:59:50;;;;;;;26.93;12.50;;;1.10;91.70;;;;;;5052799;28;20451;-60
2022/12/03 13:02:41;;;;;;;34.73;13.87;;;1.10;93.50;;;;;;5052973;28;20459;-60
2022/12/03 13:05:11;;;;;;;28.60;12.80;;;1.10;93.50;;;;;;5053169;28;20854;-60